sensor_id;sensor_type;location;lat;lon;timestamp;P1;durP1;ratioP1;P2;durP2;ratioP2
6412;SDS011;3239;48.714;9.472;2022-10-16T00:01:29;5.70;;;5.20;;
6412;SDS011;3239;48.714;9.472;2022-10-16T00:03:56;5.00;;;4.47;;
6412;SDS011;3239;48.714;9.472;2022-10-16T00:06:24;4.90;;;3.77;;
6412;SDS011;3239;48.714;9.472;2022-10-16T00:08:51;5.40;;;4.30;;
6412;SDS011;3239;48.714;9.472;2022-10-16T00:11:18;4.73;;;4.17;;
6412;SDS011;3239;48.714;9.472;2022-10-16T00:13:47;6.30;;;4.40;;
6412;SDS011;3239;48.714;9.472;2022-10-16T00:16:15;10.23;;;3.83;;
6412;SDS011;3239;48.714;9.472;2022-10-16T00:18:42;9.07;;;3.90;;
6412;SDS011;3239;48.714;9.472;2022-10-16T00:21:09;7.93;;;3.30;;
6412;SDS011;3239;48.714;9.472;2022-10-16T00:23:38;9.47;;;2.97;;
6412;SDS011;3239;48.714;9.472;2022-10-16T00:26:06;16.93;;;2.87;;
6412;SDS011;3239;48.714;9.472;2022-10-16T00:28:36;9.80;;;3.20;;
6412;SDS011;3239;48.714;9.472;2022-10-16T00:31:06;6.80;;;2.30;;
6412;SDS011;3239;48.714;9.472;2022-10-16T00:33:35;3.20;;;2.13;;
6412;SDS011;3239;48.714;9.472;2022-10-16T00:36:03;2.30;;;2.10;;
6412;SDS011;3239;48.714;9.472;2022-10-16T00:38:30;4.03;;;2.30;;
6412;SDS011;3239;48.714;9.472;2022-10-16T00:40:56;3.10;;;2.33;;
6412;SDS011;3239;48.714;9.472;2022-10-16T00:43:34;3.63;;;2.80;;
6412;SDS011;3239;48.714;9.472;2022-10-16T00:46:03;9.73;;;2.90;;
6412;SDS011;3239;48.714;9.472;2022-10-16T00:48:39;4.57;;;2.77;;
6412;SDS011;3239;48.714;9.472;2022-10-16T00:51:07;6.60;;;2.97;;
6412;SDS011;3239;48.714;9.472;2022-10-16T00:53:33;9.10;;;3.13;;
6412;SDS011;3239;48.714;9.472;2022-10-16T00:56:00;6.93;;;3.10;;
6412;SDS011;3239;48.714;9.472;2022-10-16T00:58:27;5.63;;;2.57;;
6412;SDS011;3239;48.714;9.472;2022-10-16T01:00:52;11.90;;;2.80;;
6412;SDS011;3239;48.714;9.472;2022-10-16T01:03:28;7.60;;;2.87;;
6412;SDS011;3239;48.714;9.472;2022-10-16T01:06:00;5.20;;;2.80;;
6412;SDS011;3239;48.714;9.472;2022-10-16T01:08:49;3.47;;;2.60;;
6412;SDS011;3239;48.714;9.472;2022-10-16T01:11:53;2.40;;;2.10;;
6412;SDS011;3239;48.714;9.472;2022-10-16T01:14:43;5.83;;;2.80;;
6412;SDS011;3239;48.714;9.472;2022-10-16T01:17:18;7.00;;;3.27;;
6412;SDS011;3239;48.714;9.472;2022-10-16T01:22:32;5.77;;;2.17;;
6412;SDS011;3239;48.714;9.472;2022-10-16T01:26:10;5.33;;;2.37;;
6412;SDS011;3239;48.714;9.472;2022-10-16T01:28:30;8.20;;;3.70;;
6412;SDS011;3239;48.714;9.472;2022-10-16T01:31:18;8.40;;;3.17;;
6412;SDS011;3239;48.714;9.472;2022-10-16T01:33:48;4.20;;;3.00;;
6412;SDS011;3239;48.714;9.472;2022-10-16T01:36:47;7.13;;;2.90;;
6412;SDS011;3239;48.714;9.472;2022-10-16T01:39:20;8.73;;;3.40;;
6412;SDS011;3239;48.714;9.472;2022-10-16T01:41:59;5.20;;;2.20;;
6412;SDS011;3239;48.714;9.472;2022-10-16T01:44:34;10.90;;;2.33;;
6412;SDS011;3239;48.714;9.472;2022-10-16T01:47:02;10.97;;;2.77;;
6412;SDS011;3239;48.714;9.472;2022-10-16T01:49:33;11.30;;;2.90;;
6412;SDS011;3239;48.714;9.472;2022-10-16T01:52:02;6.43;;;2.40;;
6412;SDS011;3239;48.714;9.472;2022-10-16T01:54:33;3.37;;;2.37;;
6412;SDS011;3239;48.714;9.472;2022-10-16T01:57:03;2.60;;;2.37;;
6412;SDS011;3239;48.714;9.472;2022-10-16T01:59:32;15.03;;;2.67;;
6412;SDS011;3239;48.714;9.472;2022-10-16T02:02:04;4.87;;;2.20;;
6412;SDS011;3239;48.714;9.472;2022-10-16T02:04:36;3.23;;;2.20;;
6412;SDS011;3239;48.714;9.472;2022-10-16T02:07:07;2.60;;;2.07;;
6412;SDS011;3239;48.714;9.472;2022-10-16T02:09:35;6.60;;;2.00;;
6412;SDS011;3239;48.714;9.472;2022-10-16T02:12:03;4.17;;;2.17;;
6412;SDS011;3239;48.714;9.472;2022-10-16T02:14:50;2.90;;;2.23;;
6412;SDS011;3239;48.714;9.472;2022-10-16T02:17:17;7.53;;;2.60;;
6412;SDS011;3239;48.714;9.472;2022-10-16T02:19:43;12.23;;;3.10;;
6412;SDS011;3239;48.714;9.472;2022-10-16T02:22:22;5.77;;;2.80;;
6412;SDS011;3239;48.714;9.472;2022-10-16T02:27:40;6.90;;;2.50;;
6412;SDS011;3239;48.714;9.472;2022-10-16T02:33:15;8.00;;;2.50;;
6412;SDS011;3239;48.714;9.472;2022-10-16T02:35:43;11.43;;;2.50;;
6412;SDS011;3239;48.714;9.472;2022-10-16T02:38:12;6.63;;;2.90;;
6412;SDS011;3239;48.714;9.472;2022-10-16T02:40:40;3.67;;;3.37;;
6412;SDS011;3239;48.714;9.472;2022-10-16T02:43:06;11.23;;;2.83;;
6412;SDS011;3239;48.714;9.472;2022-10-16T02:45:32;6.17;;;2.40;;
6412;SDS011;3239;48.714;9.472;2022-10-16T02:47:58;6.77;;;2.63;;
6412;SDS011;3239;48.714;9.472;2022-10-16T02:50:24;9.43;;;2.63;;
6412;SDS011;3239;48.714;9.472;2022-10-16T02:52:50;6.23;;;2.27;;
6412;SDS011;3239;48.714;9.472;2022-10-16T02:55:16;8.23;;;2.67;;
6412;SDS011;3239;48.714;9.472;2022-10-16T02:57:42;4.43;;;2.00;;
6412;SDS011;3239;48.714;9.472;2022-10-16T03:00:09;5.20;;;2.40;;
6412;SDS011;3239;48.714;9.472;2022-10-16T03:02:37;3.37;;;2.53;;
6412;SDS011;3239;48.714;9.472;2022-10-16T03:05:03;4.90;;;2.50;;
6412;SDS011;3239;48.714;9.472;2022-10-16T03:07:30;10.20;;;2.23;;
6412;SDS011;3239;48.714;9.472;2022-10-16T03:09:55;8.53;;;1.60;;
6412;SDS011;3239;48.714;9.472;2022-10-16T03:12:21;4.60;;;2.00;;
6412;SDS011;3239;48.714;9.472;2022-10-16T03:14:47;8.50;;;1.67;;
6412;SDS011;3239;48.714;9.472;2022-10-16T03:17:13;6.13;;;1.60;;
6412;SDS011;3239;48.714;9.472;2022-10-16T03:19:41;2.83;;;1.63;;
6412;SDS011;3239;48.714;9.472;2022-10-16T03:22:07;5.60;;;1.40;;
6412;SDS011;3239;48.714;9.472;2022-10-16T03:24:33;3.20;;;1.57;;
6412;SDS011;3239;48.714;9.472;2022-10-16T03:26:59;4.30;;;1.37;;
6412;SDS011;3239;48.714;9.472;2022-10-16T03:29:25;2.50;;;1.40;;
6412;SDS011;3239;48.714;9.472;2022-10-16T03:31:52;2.90;;;1.33;;
6412;SDS011;3239;48.714;9.472;2022-10-16T03:34:18;1.43;;;1.30;;
6412;SDS011;3239;48.714;9.472;2022-10-16T03:36:44;9.27;;;1.63;;
6412;SDS011;3239;48.714;9.472;2022-10-16T03:39:09;4.00;;;1.37;;
6412;SDS011;3239;48.714;9.472;2022-10-16T03:41:35;2.97;;;1.50;;
6412;SDS011;3239;48.714;9.472;2022-10-16T03:44:01;7.67;;;1.40;;
6412;SDS011;3239;48.714;9.472;2022-10-16T03:46:27;3.30;;;1.30;;
6412;SDS011;3239;48.714;9.472;2022-10-16T03:48:52;2.50;;;1.60;;
6412;SDS011;3239;48.714;9.472;2022-10-16T03:51:18;2.70;;;1.67;;
6412;SDS011;3239;48.714;9.472;2022-10-16T03:53:44;3.63;;;1.60;;
6412;SDS011;3239;48.714;9.472;2022-10-16T03:56:09;4.20;;;1.33;;
6412;SDS011;3239;48.714;9.472;2022-10-16T03:58:35;8.53;;;1.50;;
6412;SDS011;3239;48.714;9.472;2022-10-16T04:01:01;4.70;;;1.40;;
6412;SDS011;3239;48.714;9.472;2022-10-16T04:03:27;5.80;;;1.50;;
6412;SDS011;3239;48.714;9.472;2022-10-16T04:05:52;3.17;;;1.50;;
6412;SDS011;3239;48.714;9.472;2022-10-16T04:08:18;2.13;;;1.20;;
6412;SDS011;3239;48.714;9.472;2022-10-16T04:10:44;3.40;;;1.90;;
6412;SDS011;3239;48.714;9.472;2022-10-16T04:13:10;4.97;;;1.47;;
6412;SDS011;3239;48.714;9.472;2022-10-16T04:15:36;1.57;;;1.17;;
6412;SDS011;3239;48.714;9.472;2022-10-16T04:18:03;3.33;;;1.67;;
6412;SDS011;3239;48.714;9.472;2022-10-16T04:20:29;3.37;;;1.43;;
6412;SDS011;3239;48.714;9.472;2022-10-16T04:22:55;3.00;;;1.60;;
6412;SDS011;3239;48.714;9.472;2022-10-16T04:25:21;5.27;;;1.57;;
6412;SDS011;3239;48.714;9.472;2022-10-16T04:27:47;12.20;;;1.57;;
6412;SDS011;3239;48.714;9.472;2022-10-16T04:30:13;8.63;;;1.27;;
6412;SDS011;3239;48.714;9.472;2022-10-16T04:32:39;12.43;;;2.03;;
6412;SDS011;3239;48.714;9.472;2022-10-16T04:35:05;4.47;;;1.80;;
6412;SDS011;3239;48.714;9.472;2022-10-16T04:37:32;9.00;;;2.10;;
6412;SDS011;3239;48.714;9.472;2022-10-16T04:39:57;2.60;;;1.90;;
6412;SDS011;3239;48.714;9.472;2022-10-16T04:42:23;3.20;;;1.40;;
6412;SDS011;3239;48.714;9.472;2022-10-16T04:44:49;6.40;;;1.80;;
6412;SDS011;3239;48.714;9.472;2022-10-16T04:47:15;3.73;;;1.60;;
6412;SDS011;3239;48.714;9.472;2022-10-16T04:49:40;2.33;;;1.60;;
6412;SDS011;3239;48.714;9.472;2022-10-16T04:52:06;7.20;;;1.70;;
6412;SDS011;3239;48.714;9.472;2022-10-16T04:54:34;4.03;;;2.10;;
6412;SDS011;3239;48.714;9.472;2022-10-16T04:56:59;7.37;;;1.80;;
6412;SDS011;3239;48.714;9.472;2022-10-16T04:59:25;8.20;;;1.67;;
6412;SDS011;3239;48.714;9.472;2022-10-16T05:01:51;3.80;;;1.83;;
6412;SDS011;3239;48.714;9.472;2022-10-16T05:04:16;3.93;;;1.50;;
6412;SDS011;3239;48.714;9.472;2022-10-16T05:06:42;2.40;;;1.50;;
6412;SDS011;3239;48.714;9.472;2022-10-16T05:09:08;4.67;;;1.73;;
6412;SDS011;3239;48.714;9.472;2022-10-16T05:11:34;4.47;;;1.70;;
6412;SDS011;3239;48.714;9.472;2022-10-16T05:14:00;2.93;;;1.40;;
6412;SDS011;3239;48.714;9.472;2022-10-16T05:16:27;2.80;;;1.40;;
6412;SDS011;3239;48.714;9.472;2022-10-16T05:18:53;3.03;;;1.23;;
6412;SDS011;3239;48.714;9.472;2022-10-16T05:21:19;2.27;;;1.33;;
6412;SDS011;3239;48.714;9.472;2022-10-16T05:23:45;3.23;;;1.50;;
6412;SDS011;3239;48.714;9.472;2022-10-16T05:26:11;5.37;;;1.27;;
6412;SDS011;3239;48.714;9.472;2022-10-16T05:28:37;2.60;;;1.10;;
6412;SDS011;3239;48.714;9.472;2022-10-16T05:31:09;3.00;;;1.33;;
6412;SDS011;3239;48.714;9.472;2022-10-16T05:33:35;5.00;;;1.50;;
6412;SDS011;3239;48.714;9.472;2022-10-16T05:36:02;6.40;;;1.70;;
6412;SDS011;3239;48.714;9.472;2022-10-16T05:38:34;3.90;;;1.23;;
6412;SDS011;3239;48.714;9.472;2022-10-16T05:41:01;5.30;;;1.10;;
6412;SDS011;3239;48.714;9.472;2022-10-16T05:43:28;1.83;;;1.13;;
6412;SDS011;3239;48.714;9.472;2022-10-16T05:46:14;8.30;;;2.73;;
6412;SDS011;3239;48.714;9.472;2022-10-16T05:48:39;3.63;;;1.30;;
6412;SDS011;3239;48.714;9.472;2022-10-16T05:51:06;4.90;;;1.37;;
6412;SDS011;3239;48.714;9.472;2022-10-16T05:53:35;2.80;;;1.90;;
6412;SDS011;3239;48.714;9.472;2022-10-16T05:56:03;6.53;;;1.13;;
6412;SDS011;3239;48.714;9.472;2022-10-16T05:58:32;4.40;;;1.33;;
6412;SDS011;3239;48.714;9.472;2022-10-16T06:01:03;2.80;;;1.30;;
6412;SDS011;3239;48.714;9.472;2022-10-16T06:03:33;2.70;;;1.70;;
6412;SDS011;3239;48.714;9.472;2022-10-16T06:05:59;7.47;;;1.80;;
6412;SDS011;3239;48.714;9.472;2022-10-16T06:08:32;7.97;;;1.73;;
6412;SDS011;3239;48.714;9.472;2022-10-16T06:11:05;3.57;;;1.37;;
6412;SDS011;3239;48.714;9.472;2022-10-16T06:13:33;4.33;;;1.80;;
6412;SDS011;3239;48.714;9.472;2022-10-16T06:15:59;1.87;;;1.27;;
6412;SDS011;3239;48.714;9.472;2022-10-16T06:18:26;3.03;;;1.40;;
6412;SDS011;3239;48.714;9.472;2022-10-16T06:20:53;1.40;;;1.20;;
6412;SDS011;3239;48.714;9.472;2022-10-16T06:23:20;1.60;;;1.23;;
6412;SDS011;3239;48.714;9.472;2022-10-16T06:25:46;3.50;;;1.10;;
6412;SDS011;3239;48.714;9.472;2022-10-16T06:28:13;7.50;;;1.80;;
6412;SDS011;3239;48.714;9.472;2022-10-16T06:30:40;2.73;;;1.30;;
6412;SDS011;3239;48.714;9.472;2022-10-16T06:33:08;8.50;;;2.27;;
6412;SDS011;3239;48.714;9.472;2022-10-16T06:35:35;9.47;;;2.00;;
6412;SDS011;3239;48.714;9.472;2022-10-16T06:38:01;4.70;;;1.60;;
6412;SDS011;3239;48.714;9.472;2022-10-16T06:40:27;2.30;;;1.87;;
6412;SDS011;3239;48.714;9.472;2022-10-16T06:42:54;6.37;;;1.90;;
6412;SDS011;3239;48.714;9.472;2022-10-16T06:45:20;14.40;;;2.30;;
6412;SDS011;3239;48.714;9.472;2022-10-16T06:47:46;6.93;;;1.60;;
6412;SDS011;3239;48.714;9.472;2022-10-16T06:50:12;6.73;;;1.80;;
6412;SDS011;3239;48.714;9.472;2022-10-16T06:52:37;4.43;;;1.77;;
6412;SDS011;3239;48.714;9.472;2022-10-16T06:55:03;2.40;;;1.30;;
6412;SDS011;3239;48.714;9.472;2022-10-16T06:57:30;6.70;;;2.17;;
6412;SDS011;3239;48.714;9.472;2022-10-16T06:59:56;8.50;;;3.17;;
6412;SDS011;3239;48.714;9.472;2022-10-16T07:02:22;5.40;;;2.20;;
6412;SDS011;3239;48.714;9.472;2022-10-16T07:04:47;3.00;;;2.27;;
6412;SDS011;3239;48.714;9.472;2022-10-16T07:07:13;5.10;;;2.23;;
6412;SDS011;3239;48.714;9.472;2022-10-16T07:09:39;12.23;;;1.97;;
6412;SDS011;3239;48.714;9.472;2022-10-16T07:12:05;8.77;;;1.70;;
6412;SDS011;3239;48.714;9.472;2022-10-16T07:14:31;6.47;;;1.73;;
6412;SDS011;3239;48.714;9.472;2022-10-16T07:16:57;5.00;;;1.50;;
6412;SDS011;3239;48.714;9.472;2022-10-16T07:19:22;4.53;;;1.70;;
6412;SDS011;3239;48.714;9.472;2022-10-16T07:21:48;11.27;;;1.50;;
6412;SDS011;3239;48.714;9.472;2022-10-16T07:24:15;5.63;;;1.20;;
6412;SDS011;3239;48.714;9.472;2022-10-16T07:26:42;8.53;;;1.37;;
6412;SDS011;3239;48.714;9.472;2022-10-16T07:29:16;9.57;;;1.83;;
6412;SDS011;3239;48.714;9.472;2022-10-16T07:31:45;4.97;;;1.40;;
6412;SDS011;3239;48.714;9.472;2022-10-16T07:34:11;5.30;;;1.40;;
6412;SDS011;3239;48.714;9.472;2022-10-16T07:36:39;8.03;;;1.30;;
6412;SDS011;3239;48.714;9.472;2022-10-16T07:39:05;4.67;;;1.20;;
6412;SDS011;3239;48.714;9.472;2022-10-16T07:41:31;5.30;;;1.70;;
6412;SDS011;3239;48.714;9.472;2022-10-16T07:43:57;4.73;;;1.20;;
6412;SDS011;3239;48.714;9.472;2022-10-16T07:46:27;5.60;;;1.40;;
6412;SDS011;3239;48.714;9.472;2022-10-16T07:48:53;2.03;;;1.17;;
6412;SDS011;3239;48.714;9.472;2022-10-16T07:51:21;9.80;;;1.47;;
6412;SDS011;3239;48.714;9.472;2022-10-16T07:53:49;5.80;;;1.20;;
6412;SDS011;3239;48.714;9.472;2022-10-16T07:56:16;9.30;;;2.20;;
6412;SDS011;3239;48.714;9.472;2022-10-16T07:58:43;2.63;;;1.13;;
6412;SDS011;3239;48.714;9.472;2022-10-16T08:01:10;3.80;;;1.23;;
6412;SDS011;3239;48.714;9.472;2022-10-16T08:03:41;3.27;;;1.30;;
6412;SDS011;3239;48.714;9.472;2022-10-16T08:06:08;3.30;;;1.30;;
6412;SDS011;3239;48.714;9.472;2022-10-16T08:08:34;3.10;;;1.37;;
6412;SDS011;3239;48.714;9.472;2022-10-16T08:11:00;5.57;;;1.30;;
6412;SDS011;3239;48.714;9.472;2022-10-16T08:13:28;6.20;;;2.00;;
6412;SDS011;3239;48.714;9.472;2022-10-16T08:15:55;9.73;;;1.77;;
6412;SDS011;3239;48.714;9.472;2022-10-16T08:18:21;4.80;;;1.67;;
6412;SDS011;3239;48.714;9.472;2022-10-16T08:20:47;2.90;;;1.20;;
6412;SDS011;3239;48.714;9.472;2022-10-16T08:23:19;4.40;;;1.90;;
6412;SDS011;3239;48.714;9.472;2022-10-16T08:25:45;6.80;;;1.60;;
6412;SDS011;3239;48.714;9.472;2022-10-16T08:28:11;11.17;;;1.30;;
6412;SDS011;3239;48.714;9.472;2022-10-16T08:30:36;8.33;;;1.80;;
6412;SDS011;3239;48.714;9.472;2022-10-16T08:33:02;4.53;;;1.10;;
6412;SDS011;3239;48.714;9.472;2022-10-16T08:35:28;9.23;;;1.37;;
6412;SDS011;3239;48.714;9.472;2022-10-16T08:37:54;6.77;;;1.33;;
6412;SDS011;3239;48.714;9.472;2022-10-16T08:40:23;21.33;;;1.53;;
6412;SDS011;3239;48.714;9.472;2022-10-16T08:47:00;5.27;;;1.73;;
6412;SDS011;3239;48.714;9.472;2022-10-16T08:50:19;4.30;;;1.77;;
6412;SDS011;3239;48.714;9.472;2022-10-16T08:52:51;2.07;;;1.10;;
6412;SDS011;3239;48.714;9.472;2022-10-16T08:58:14;11.03;;;1.60;;
6412;SDS011;3239;48.714;9.472;2022-10-16T09:00:44;3.53;;;1.47;;
6412;SDS011;3239;48.714;9.472;2022-10-16T09:12:37;6.23;;;1.40;;
6412;SDS011;3239;48.714;9.472;2022-10-16T09:15:39;7.93;;;1.50;;
6412;SDS011;3239;48.714;9.472;2022-10-16T09:18:21;6.63;;;1.80;;
6412;SDS011;3239;48.714;9.472;2022-10-16T09:23:49;6.00;;;1.60;;
6412;SDS011;3239;48.714;9.472;2022-10-16T09:26:16;5.23;;;1.63;;
6412;SDS011;3239;48.714;9.472;2022-10-16T09:28:44;9.10;;;1.20;;
6412;SDS011;3239;48.714;9.472;2022-10-16T09:31:17;3.53;;;2.03;;
6412;SDS011;3239;48.714;9.472;2022-10-16T09:33:48;5.20;;;1.27;;
6412;SDS011;3239;48.714;9.472;2022-10-16T09:36:20;5.23;;;1.17;;
6412;SDS011;3239;48.714;9.472;2022-10-16T09:38:48;5.17;;;1.43;;
6412;SDS011;3239;48.714;9.472;2022-10-16T09:41:21;4.10;;;1.73;;
6412;SDS011;3239;48.714;9.472;2022-10-16T09:43:49;3.20;;;1.20;;
6412;SDS011;3239;48.714;9.472;2022-10-16T09:46:24;3.17;;;1.03;;
6412;SDS011;3239;48.714;9.472;2022-10-16T09:49:04;4.60;;;1.10;;
6412;SDS011;3239;48.714;9.472;2022-10-16T09:51:47;7.03;;;1.00;;
6412;SDS011;3239;48.714;9.472;2022-10-16T09:54:14;4.63;;;0.97;;
6412;SDS011;3239;48.714;9.472;2022-10-16T09:56:43;1.73;;;1.10;;
6412;SDS011;3239;48.714;9.472;2022-10-16T10:01:40;6.40;;;0.73;;
6412;SDS011;3239;48.714;9.472;2022-10-16T10:04:13;2.80;;;0.90;;
6412;SDS011;3239;48.714;9.472;2022-10-16T10:09:23;6.50;;;0.93;;
6412;SDS011;3239;48.714;9.472;2022-10-16T10:11:58;3.37;;;0.90;;
6412;SDS011;3239;48.714;9.472;2022-10-16T10:14:46;3.53;;;0.90;;
6412;SDS011;3239;48.714;9.472;2022-10-16T10:17:16;6.03;;;1.20;;
6412;SDS011;3239;48.714;9.472;2022-10-16T10:19:52;3.57;;;1.10;;
6412;SDS011;3239;48.714;9.472;2022-10-16T10:30:44;10.10;;;1.10;;
6412;SDS011;3239;48.714;9.472;2022-10-16T10:36:30;4.43;;;1.57;;
6412;SDS011;3239;48.714;9.472;2022-10-16T10:41:44;11.07;;;2.53;;
6412;SDS011;3239;48.714;9.472;2022-10-16T10:50:43;3.67;;;0.80;;
6412;SDS011;3239;48.714;9.472;2022-10-16T11:02:25;1.90;;;1.10;;
6412;SDS011;3239;48.714;9.472;2022-10-16T11:07:57;2.80;;;0.80;;
6412;SDS011;3239;48.714;9.472;2022-10-16T11:10:34;2.87;;;0.70;;
6412;SDS011;3239;48.714;9.472;2022-10-16T11:13:16;3.63;;;1.10;;
6412;SDS011;3239;48.714;9.472;2022-10-16T11:16:15;4.50;;;1.10;;
6412;SDS011;3239;48.714;9.472;2022-10-16T11:19:22;3.37;;;1.10;;
6412;SDS011;3239;48.714;9.472;2022-10-16T11:22:17;3.77;;;0.93;;
6412;SDS011;3239;48.714;9.472;2022-10-16T11:28:11;6.20;;;0.90;;
6412;SDS011;3239;48.714;9.472;2022-10-16T11:34:05;3.80;;;0.80;;
6412;SDS011;3239;48.714;9.472;2022-10-16T11:39:27;2.37;;;0.97;;
6412;SDS011;3239;48.714;9.472;2022-10-16T11:42:05;2.10;;;0.87;;
6412;SDS011;3239;48.714;9.472;2022-10-16T11:45:08;4.20;;;1.20;;
6412;SDS011;3239;48.714;9.472;2022-10-16T11:47:57;2.63;;;1.17;;
6412;SDS011;3239;48.714;9.472;2022-10-16T11:50:56;2.93;;;0.80;;
6412;SDS011;3239;48.714;9.472;2022-10-16T11:53:46;4.80;;;0.90;;
6412;SDS011;3239;48.714;9.472;2022-10-16T11:56:24;1.10;;;0.63;;
6412;SDS011;3239;48.714;9.472;2022-10-16T11:58:55;3.10;;;0.87;;
6412;SDS011;3239;48.714;9.472;2022-10-16T12:01:30;2.10;;;0.80;;
6412;SDS011;3239;48.714;9.472;2022-10-16T12:04:13;1.70;;;0.70;;
6412;SDS011;3239;48.714;9.472;2022-10-16T12:09:27;3.27;;;0.97;;
6412;SDS011;3239;48.714;9.472;2022-10-16T12:11:56;4.03;;;0.93;;
6412;SDS011;3239;48.714;9.472;2022-10-16T12:17:23;1.67;;;0.90;;
6412;SDS011;3239;48.714;9.472;2022-10-16T12:20:12;4.30;;;1.00;;
6412;SDS011;3239;48.714;9.472;2022-10-16T12:22:56;2.23;;;0.80;;
6412;SDS011;3239;48.714;9.472;2022-10-16T12:25:35;1.60;;;1.03;;
6412;SDS011;3239;48.714;9.472;2022-10-16T12:30:40;2.30;;;0.93;;
6412;SDS011;3239;48.714;9.472;2022-10-16T12:35:59;3.10;;;1.10;;
6412;SDS011;3239;48.714;9.472;2022-10-16T12:38:35;2.80;;;0.87;;
6412;SDS011;3239;48.714;9.472;2022-10-16T12:41:33;1.00;;;0.60;;
6412;SDS011;3239;48.714;9.472;2022-10-16T12:44:02;4.30;;;1.00;;
6412;SDS011;3239;48.714;9.472;2022-10-16T12:49:05;3.57;;;0.73;;
6412;SDS011;3239;48.714;9.472;2022-10-16T12:51:37;5.23;;;0.90;;
6412;SDS011;3239;48.714;9.472;2022-10-16T12:54:10;3.10;;;0.67;;
6412;SDS011;3239;48.714;9.472;2022-10-16T13:00:39;2.60;;;0.70;;
6412;SDS011;3239;48.714;9.472;2022-10-16T13:10:13;3.40;;;1.00;;
6412;SDS011;3239;48.714;9.472;2022-10-16T13:16:30;1.33;;;0.90;;
6412;SDS011;3239;48.714;9.472;2022-10-16T13:19:18;2.60;;;0.80;;
6412;SDS011;3239;48.714;9.472;2022-10-16T13:22:38;2.40;;;0.80;;
6412;SDS011;3239;48.714;9.472;2022-10-16T13:28:21;2.40;;;0.83;;
6412;SDS011;3239;48.714;9.472;2022-10-16T13:30:56;3.90;;;1.10;;
6412;SDS011;3239;48.714;9.472;2022-10-16T13:33:35;2.40;;;0.83;;
6412;SDS011;3239;48.714;9.472;2022-10-16T13:36:04;2.00;;;0.93;;
6412;SDS011;3239;48.714;9.472;2022-10-16T13:38:35;4.53;;;0.90;;
6412;SDS011;3239;48.714;9.472;2022-10-16T13:41:03;6.90;;;1.10;;
6412;SDS011;3239;48.714;9.472;2022-10-16T13:43:50;1.50;;;0.90;;
6412;SDS011;3239;48.714;9.472;2022-10-16T13:46:22;2.47;;;1.00;;
6412;SDS011;3239;48.714;9.472;2022-10-16T13:48:59;3.83;;;0.97;;
6412;SDS011;3239;48.714;9.472;2022-10-16T13:51:29;2.80;;;0.97;;
6412;SDS011;3239;48.714;9.472;2022-10-16T13:53:56;1.73;;;0.70;;
6412;SDS011;3239;48.714;9.472;2022-10-16T13:56:27;2.63;;;0.90;;
6412;SDS011;3239;48.714;9.472;2022-10-16T13:59:03;2.67;;;0.80;;
6412;SDS011;3239;48.714;9.472;2022-10-16T14:01:35;2.53;;;1.00;;
6412;SDS011;3239;48.714;9.472;2022-10-16T14:04:08;1.90;;;0.67;;
6412;SDS011;3239;48.714;9.472;2022-10-16T14:06:39;2.50;;;0.80;;
6412;SDS011;3239;48.714;9.472;2022-10-16T14:09:14;3.43;;;0.80;;
6412;SDS011;3239;48.714;9.472;2022-10-16T14:14:27;2.63;;;1.27;;
6412;SDS011;3239;48.714;9.472;2022-10-16T14:17:24;2.03;;;0.90;;
6412;SDS011;3239;48.714;9.472;2022-10-16T14:19:55;4.37;;;1.20;;
6412;SDS011;3239;48.714;9.472;2022-10-16T14:22:29;12.03;;;1.00;;
6412;SDS011;3239;48.714;9.472;2022-10-16T14:25:01;7.90;;;1.20;;
6412;SDS011;3239;48.714;9.472;2022-10-16T14:27:59;7.03;;;1.00;;
6412;SDS011;3239;48.714;9.472;2022-10-16T14:30:51;4.70;;;1.30;;
6412;SDS011;3239;48.714;9.472;2022-10-16T14:33:35;3.17;;;0.90;;
6412;SDS011;3239;48.714;9.472;2022-10-16T14:36:06;6.67;;;1.10;;
6412;SDS011;3239;48.714;9.472;2022-10-16T14:38:42;10.47;;;1.10;;
6412;SDS011;3239;48.714;9.472;2022-10-16T14:41:22;4.63;;;1.13;;
6412;SDS011;3239;48.714;9.472;2022-10-16T14:43:50;2.30;;;1.00;;
6412;SDS011;3239;48.714;9.472;2022-10-16T14:46:33;5.73;;;1.00;;
6412;SDS011;3239;48.714;9.472;2022-10-16T14:51:34;7.47;;;1.47;;
6412;SDS011;3239;48.714;9.472;2022-10-16T14:54:00;4.67;;;1.10;;
6412;SDS011;3239;48.714;9.472;2022-10-16T14:56:31;7.43;;;1.37;;
6412;SDS011;3239;48.714;9.472;2022-10-16T14:59:07;3.17;;;0.90;;
6412;SDS011;3239;48.714;9.472;2022-10-16T15:01:56;3.07;;;1.00;;
6412;SDS011;3239;48.714;9.472;2022-10-16T15:04:22;2.80;;;1.00;;
6412;SDS011;3239;48.714;9.472;2022-10-16T15:06:48;8.23;;;1.20;;
6412;SDS011;3239;48.714;9.472;2022-10-16T15:09:14;11.47;;;1.50;;
6412;SDS011;3239;48.714;9.472;2022-10-16T15:11:40;3.00;;;1.20;;
6412;SDS011;3239;48.714;9.472;2022-10-16T15:14:13;4.13;;;1.30;;
6412;SDS011;3239;48.714;9.472;2022-10-16T15:16:39;24.17;;;2.23;;
6412;SDS011;3239;48.714;9.472;2022-10-16T15:19:05;5.70;;;1.50;;
6412;SDS011;3239;48.714;9.472;2022-10-16T15:21:32;6.70;;;1.57;;
6412;SDS011;3239;48.714;9.472;2022-10-16T15:23:58;3.40;;;1.60;;
6412;SDS011;3239;48.714;9.472;2022-10-16T15:26:25;6.87;;;1.47;;
6412;SDS011;3239;48.714;9.472;2022-10-16T15:28:53;16.77;;;1.63;;
6412;SDS011;3239;48.714;9.472;2022-10-16T15:31:18;13.63;;;2.07;;
6412;SDS011;3239;48.714;9.472;2022-10-16T15:33:45;12.33;;;1.30;;
6412;SDS011;3239;48.714;9.472;2022-10-16T15:36:17;8.03;;;1.70;;
6412;SDS011;3239;48.714;9.472;2022-10-16T15:38:50;3.83;;;1.27;;
6412;SDS011;3239;48.714;9.472;2022-10-16T15:41:15;12.00;;;1.90;;
6412;SDS011;3239;48.714;9.472;2022-10-16T15:43:41;4.87;;;1.33;;
6412;SDS011;3239;48.714;9.472;2022-10-16T15:46:12;8.67;;;1.67;;
6412;SDS011;3239;48.714;9.472;2022-10-16T15:48:39;8.47;;;1.63;;
6412;SDS011;3239;48.714;9.472;2022-10-16T15:51:05;23.43;;;1.83;;
6412;SDS011;3239;48.714;9.472;2022-10-16T15:53:32;10.03;;;1.57;;
6412;SDS011;3239;48.714;9.472;2022-10-16T15:56:06;6.70;;;1.73;;
6412;SDS011;3239;48.714;9.472;2022-10-16T15:58:34;13.53;;;1.80;;
6412;SDS011;3239;48.714;9.472;2022-10-16T16:01:00;16.03;;;2.27;;
6412;SDS011;3239;48.714;9.472;2022-10-16T16:03:27;5.60;;;1.60;;
6412;SDS011;3239;48.714;9.472;2022-10-16T16:05:54;6.80;;;1.30;;
6412;SDS011;3239;48.714;9.472;2022-10-16T16:08:19;10.50;;;1.63;;
6412;SDS011;3239;48.714;9.472;2022-10-16T16:10:56;12.00;;;2.00;;
6412;SDS011;3239;48.714;9.472;2022-10-16T16:13:24;6.63;;;1.27;;
6412;SDS011;3239;48.714;9.472;2022-10-16T16:15:50;8.10;;;1.67;;
6412;SDS011;3239;48.714;9.472;2022-10-16T16:18:15;10.43;;;2.00;;
6412;SDS011;3239;48.714;9.472;2022-10-16T16:20:41;11.33;;;1.67;;
6412;SDS011;3239;48.714;9.472;2022-10-16T16:23:07;3.47;;;1.93;;
6412;SDS011;3239;48.714;9.472;2022-10-16T16:25:32;2.63;;;1.83;;
6412;SDS011;3239;48.714;9.472;2022-10-16T16:27:58;6.13;;;1.13;;
6412;SDS011;3239;48.714;9.472;2022-10-16T16:30:24;12.30;;;2.00;;
6412;SDS011;3239;48.714;9.472;2022-10-16T16:32:50;11.50;;;1.60;;
6412;SDS011;3239;48.714;9.472;2022-10-16T16:35:15;9.33;;;1.77;;
6412;SDS011;3239;48.714;9.472;2022-10-16T16:37:41;10.20;;;1.40;;
6412;SDS011;3239;48.714;9.472;2022-10-16T16:40:07;7.40;;;1.63;;
6412;SDS011;3239;48.714;9.472;2022-10-16T16:42:33;5.90;;;1.70;;
6412;SDS011;3239;48.714;9.472;2022-10-16T16:44:58;6.20;;;1.33;;
6412;SDS011;3239;48.714;9.472;2022-10-16T16:47:24;8.23;;;1.60;;
6412;SDS011;3239;48.714;9.472;2022-10-16T16:49:50;6.90;;;1.30;;
6412;SDS011;3239;48.714;9.472;2022-10-16T16:52:16;14.10;;;2.20;;
6412;SDS011;3239;48.714;9.472;2022-10-16T16:54:42;5.57;;;1.37;;
6412;SDS011;3239;48.714;9.472;2022-10-16T16:57:09;4.30;;;1.87;;
6412;SDS011;3239;48.714;9.472;2022-10-16T16:59:35;7.67;;;1.33;;
6412;SDS011;3239;48.714;9.472;2022-10-16T17:02:02;17.23;;;1.80;;
6412;SDS011;3239;48.714;9.472;2022-10-16T17:04:28;12.63;;;2.00;;
6412;SDS011;3239;48.714;9.472;2022-10-16T17:06:54;5.53;;;1.47;;
6412;SDS011;3239;48.714;9.472;2022-10-16T17:09:20;5.70;;;1.63;;
6412;SDS011;3239;48.714;9.472;2022-10-16T17:11:47;2.33;;;1.67;;
6412;SDS011;3239;48.714;9.472;2022-10-16T17:14:13;11.73;;;2.00;;
6412;SDS011;3239;48.714;9.472;2022-10-16T17:16:39;5.47;;;1.97;;
6412;SDS011;3239;48.714;9.472;2022-10-16T17:19:10;12.67;;;1.57;;
6412;SDS011;3239;48.714;9.472;2022-10-16T17:21:39;6.93;;;1.90;;
6412;SDS011;3239;48.714;9.472;2022-10-16T17:24:05;2.60;;;1.87;;
6412;SDS011;3239;48.714;9.472;2022-10-16T17:26:32;3.60;;;1.73;;
6412;SDS011;3239;48.714;9.472;2022-10-16T17:29:02;2.70;;;1.67;;